MAD weather

Adolfo Suárez Madrid–Barajas Airport
Madrid, Madrid, Spain

Public forecast

Using degrees Celsius for public forecast. Weather courtesy of forecast.io.

METAR (pilot weather report)

Retrieved 2019/02/17 13:30 UTC (16 minutes ago):

LEMD 171330Z 19003KT 090V260 CAVOK 14/M06 Q1022 NOSIG

TAF (pilot weather forecast)

Retrieved 2019/02/17 12:27 UTC (1 hour ago):

TAF LEMD 171100Z 1712/1818 VRB05KT CAVOK TX17/1716Z TN01/1806Z PROB40 TEMPO 1712/1717 17008KT PROB30 TEMPO 1720/1812 06007KT